createdAt,value
2022-08-21T00:01:27.518Z,4.25
2022-08-21T00:04:14.657Z,3.95
2022-08-21T00:07:08.406Z,4.55
2022-08-21T00:09:54.897Z,3.55
2022-08-21T00:12:41.711Z,4.20
2022-08-21T00:15:30.317Z,4.50
2022-08-21T00:18:17.201Z,3.92
2022-08-21T00:21:04.452Z,3.83
2022-08-21T00:23:50.425Z,4.12
2022-08-21T00:26:36.935Z,3.95
2022-08-21T00:29:23.267Z,3.87
2022-08-21T00:32:09.561Z,4.22
2022-08-21T00:34:56.141Z,4.47
2022-08-21T00:37:43.485Z,5.57
2022-08-21T00:40:38.074Z,4.22
2022-08-21T00:43:30.387Z,4.93
2022-08-21T00:46:16.856Z,5.03
2022-08-21T00:49:05.195Z,4.87
2022-08-21T00:51:55.015Z,4.75
2022-08-21T00:54:46.326Z,4.78
2022-08-21T01:00:25.550Z,5.15
2022-08-21T01:03:17.683Z,5.78
2022-08-21T01:06:05.314Z,5.43
2022-08-21T01:08:51.859Z,4.72
2022-08-21T01:11:38.656Z,4.68
2022-08-21T01:14:24.942Z,5.03
2022-08-21T01:17:12.685Z,5.53
2022-08-21T01:19:59.909Z,5.82
2022-08-21T01:22:46.793Z,7.53
2022-08-21T01:25:33.836Z,6.87
2022-08-21T01:28:20.929Z,6.15
2022-08-21T01:31:08.674Z,6.12
2022-08-21T01:33:56.128Z,5.72
2022-08-21T01:36:43.796Z,6.55
2022-08-21T01:39:30.569Z,6.50
2022-08-21T01:42:16.540Z,7.03
2022-08-21T01:45:03.300Z,6.32
2022-08-21T01:47:49.439Z,6.37
2022-08-21T01:50:35.848Z,6.57
2022-08-21T01:53:21.675Z,6.55
2022-08-21T01:56:19.878Z,7.60
2022-08-21T01:59:06.270Z,8.23
2022-08-21T02:01:55.052Z,6.53
2022-08-21T02:04:41.523Z,7.22
2022-08-21T02:07:40.259Z,7.28
2022-08-21T02:10:31.269Z,6.78
2022-08-21T02:13:18.261Z,7.03
2022-08-21T02:16:05.179Z,6.45
2022-08-21T02:18:51.463Z,7.15
2022-08-21T02:21:38.089Z,6.60
2022-08-21T02:24:24.164Z,7.57
2022-08-21T02:27:10.588Z,6.82
2022-08-21T02:29:59.025Z,7.10
2022-08-21T02:32:45.289Z,8.60
2022-08-21T02:35:31.883Z,7.05
2022-08-21T02:38:21.464Z,7.12
2022-08-21T02:41:10.419Z,7.62
2022-08-21T02:43:56.701Z,8.00
2022-08-21T02:46:42.929Z,7.43
2022-08-21T02:49:29.434Z,7.93
2022-08-21T02:52:15.728Z,7.03
2022-08-21T02:55:02.033Z,7.93
2022-08-21T02:57:49.243Z,8.63
2022-08-21T03:00:37.208Z,7.72
2022-08-21T03:03:23.869Z,7.68
2022-08-21T03:06:12.626Z,7.97
2022-08-21T03:08:58.767Z,7.60
2022-08-21T03:11:45.273Z,7.07
2022-08-21T03:14:31.419Z,6.90
2022-08-21T03:17:17.569Z,7.78
2022-08-21T03:20:05.784Z,8.30
2022-08-21T03:22:53.315Z,8.70
2022-08-21T03:25:40.525Z,8.73
2022-08-21T03:28:29.037Z,8.25
2022-08-21T03:31:15.234Z,9.00
2022-08-21T03:34:01.733Z,9.38
2022-08-21T03:36:49.993Z,9.73
2022-08-21T03:39:36.574Z,9.80
2022-08-21T03:42:23.106Z,9.60
2022-08-21T03:45:10.949Z,8.98
2022-08-21T03:47:59.654Z,9.63
2022-08-21T03:50:47.871Z,9.18
2022-08-21T03:53:34.962Z,10.10
2022-08-21T03:56:21.402Z,9.95
2022-08-21T03:59:07.839Z,9.57
2022-08-21T04:02:00.217Z,10.25
2022-08-21T04:04:46.690Z,11.18
2022-08-21T04:07:33.013Z,9.90
2022-08-21T04:10:19.431Z,10.48
2022-08-21T04:13:06.341Z,10.02
2022-08-21T04:15:53.093Z,10.65
2022-08-21T04:18:39.322Z,10.43
2022-08-21T04:21:25.741Z,10.13
2022-08-21T04:24:12.301Z,10.57
2022-08-21T04:26:58.813Z,9.80
2022-08-21T04:29:45.322Z,9.00
2022-08-21T04:32:31.785Z,9.40
2022-08-21T04:35:20.437Z,9.52
2022-08-21T04:38:06.977Z,8.73
2022-08-21T04:40:53.731Z,8.85
2022-08-21T04:43:40.588Z,8.35
2022-08-21T04:46:27.053Z,8.02
2022-08-21T04:49:13.290Z,8.18
2022-08-21T04:51:59.870Z,8.40
2022-08-21T04:54:46.641Z,7.65
2022-08-21T04:57:36.706Z,6.87
2022-08-21T05:00:34.918Z,6.97
2022-08-21T05:03:22.511Z,6.50
2022-08-21T05:06:12.034Z,6.40
2022-08-21T05:09:02.082Z,6.53
2022-08-21T05:11:49.875Z,6.00
2022-08-21T05:14:36.174Z,5.57
2022-08-21T05:17:22.753Z,5.62
2022-08-21T05:20:10.941Z,5.28
2022-08-21T05:22:57.747Z,5.80
2022-08-21T05:25:44.504Z,4.97
2022-08-21T05:28:33.107Z,5.45
2022-08-21T05:31:19.369Z,5.12
2022-08-21T05:34:07.419Z,5.28
2022-08-21T05:36:53.457Z,5.22
2022-08-21T05:40:20.083Z,5.50
2022-08-21T05:42:45.944Z,5.37
2022-08-21T05:45:44.229Z,5.07
2022-08-21T05:48:31.124Z,4.28
2022-08-21T05:51:18.556Z,5.07
2022-08-21T05:54:04.542Z,5.22
2022-08-21T05:56:50.920Z,4.70
2022-08-21T05:59:36.749Z,4.90
2022-08-21T06:02:23.298Z,4.72
2022-08-21T06:05:09.951Z,4.45
2022-08-21T06:07:56.250Z,4.55
2022-08-21T06:10:43.222Z,4.85
2022-08-21T06:13:29.664Z,5.40
2022-08-21T06:16:17.344Z,4.57
2022-08-21T06:19:03.712Z,4.75
2022-08-21T06:21:50.307Z,4.60
2022-08-21T06:24:37.049Z,4.72
2022-08-21T06:27:26.529Z,5.43
2022-08-21T06:30:13.522Z,4.40
2022-08-21T06:33:00.132Z,4.97
2022-08-21T06:35:46.578Z,4.62
2022-08-21T06:38:32.903Z,4.30
2022-08-21T06:41:23.753Z,5.30
2022-08-21T06:44:13.142Z,4.65
2022-08-21T06:46:59.648Z,4.62
2022-08-21T06:49:45.946Z,5.22
2022-08-21T06:52:32.375Z,4.82
2022-08-21T06:55:22.338Z,5.03
2022-08-21T06:58:11.140Z,4.00
2022-08-21T07:01:00.777Z,5.28
2022-08-21T07:03:47.263Z,5.07
2022-08-21T07:06:33.952Z,5.10
2022-08-21T07:09:24.412Z,4.97
2022-08-21T07:14:57.426Z,4.62
2022-08-21T07:17:43.853Z,4.87
2022-08-21T07:20:31.428Z,4.70
2022-08-21T07:23:39.686Z,4.85
2022-08-21T07:26:26.903Z,4.87
2022-08-21T07:29:13.366Z,5.15
2022-08-21T07:32:00.765Z,5.00
2022-08-21T07:34:47.260Z,5.43
2022-08-21T07:37:33.142Z,5.40
2022-08-21T07:40:19.817Z,5.28
2022-08-21T07:43:05.799Z,5.53
2022-08-21T07:45:52.252Z,5.20
2022-08-21T07:48:38.887Z,5.70
2022-08-21T07:51:28.078Z,4.85
2022-08-21T07:54:17.090Z,5.18
2022-08-21T07:57:04.294Z,4.97
2022-08-21T07:59:50.540Z,5.00
2022-08-21T08:02:37.029Z,5.47
2022-08-21T08:05:26.887Z,6.25
2022-08-21T08:08:12.993Z,5.18
2022-08-21T08:10:59.922Z,5.60
2022-08-21T08:13:51.458Z,5.85
2022-08-21T08:16:38.085Z,5.50
2022-08-21T08:19:25.640Z,5.47
2022-08-21T08:22:16.891Z,5.50
2022-08-21T08:25:06.389Z,5.90
2022-08-21T08:27:55.535Z,5.43
2022-08-21T08:30:41.938Z,5.22
2022-08-21T08:33:28.617Z,5.07
2022-08-21T08:36:19.201Z,6.18
2022-08-21T08:39:06.970Z,4.95
2022-08-21T08:42:33.686Z,5.37
2022-08-21T08:45:18.579Z,4.97
2022-08-21T08:48:07.353Z,5.78
2022-08-21T08:51:02.181Z,5.10
2022-08-21T08:53:53.232Z,5.35
2022-08-21T08:56:39.925Z,5.55
2022-08-21T08:59:36.720Z,4.90
2022-08-21T09:02:28.679Z,5.22
2022-08-21T09:08:35.283Z,6.65
2022-08-21T09:11:30.709Z,5.95
2022-08-21T09:14:47.657Z,5.65
2022-08-21T09:18:01.764Z,5.97
2022-08-21T09:21:10.813Z,6.10
2022-08-21T09:24:14.058Z,6.00
2022-08-21T09:27:09.690Z,6.57
2022-08-21T09:29:56.074Z,7.00
2022-08-21T09:32:42.645Z,6.32
2022-08-21T09:35:28.951Z,6.40
2022-08-21T09:38:26.020Z,6.03
2022-08-21T09:41:13.996Z,6.35
2022-08-21T09:44:00.717Z,5.70
2022-08-21T09:46:53.581Z,5.95
2022-08-21T09:49:43.599Z,7.20
2022-08-21T09:52:30.110Z,6.12
2022-08-21T09:55:39.873Z,5.20
2022-08-21T09:58:33.613Z,5.60
2022-08-21T10:01:23.179Z,5.43
2022-08-21T10:04:10.270Z,5.47
2022-08-21T10:07:07.317Z,5.20
2022-08-21T10:10:27.788Z,5.80
2022-08-21T10:13:22.382Z,5.65
2022-08-21T10:16:29.425Z,6.68
2022-08-21T10:19:24.836Z,6.22
2022-08-21T10:22:23.743Z,6.60
2022-08-21T10:25:32.613Z,5.78
2022-08-21T10:29:16.767Z,5.60
2022-08-21T10:32:57.822Z,6.93
2022-08-21T10:36:00.813Z,5.40
2022-08-21T10:39:25.783Z,6.70
2022-08-21T10:45:26.686Z,4.87
2022-08-21T10:48:36.770Z,6.10
2022-08-21T10:51:44.121Z,5.78
2022-08-21T10:54:38.205Z,5.72
2022-08-21T10:57:42.405Z,5.93
2022-08-21T11:00:38.787Z,5.53
2022-08-21T11:03:42.830Z,5.85
2022-08-21T11:06:33.319Z,6.10
2022-08-21T11:09:32.516Z,5.40
2022-08-21T11:15:57.088Z,5.72
2022-08-21T11:19:00.073Z,6.05
2022-08-21T11:25:38.766Z,5.80
2022-08-21T11:28:41.489Z,5.55
2022-08-21T11:31:30.749Z,5.62
2022-08-21T11:34:48.765Z,4.97
2022-08-21T11:37:46.666Z,4.95
2022-08-21T11:40:52.617Z,5.90
2022-08-21T11:43:43.941Z,6.12
2022-08-21T11:47:15.859Z,5.32
2022-08-21T11:50:35.450Z,6.07
2022-08-21T11:53:44.079Z,6.20
2022-08-21T11:56:46.772Z,6.15
2022-08-21T11:59:44.353Z,6.10
2022-08-21T12:02:38.733Z,6.12
2022-08-21T12:05:47.573Z,6.43
2022-08-21T12:11:58.759Z,5.72
2022-08-21T12:15:10.815Z,6.45
2022-08-21T12:18:22.738Z,6.32
2022-08-21T12:21:31.762Z,5.35
2022-08-21T12:24:29.188Z,5.93
2022-08-21T12:27:32.761Z,5.45
2022-08-21T12:30:37.800Z,5.85
2022-08-21T12:33:32.981Z,5.50
2022-08-21T12:36:44.095Z,5.87
2022-08-21T12:39:38.998Z,5.65
2022-08-21T12:45:45.839Z,5.97
2022-08-21T12:54:50.329Z,5.03
2022-08-21T13:00:54.994Z,4.85
2022-08-21T13:03:43.784Z,7.55
2022-08-21T13:06:43.816Z,5.70
2022-08-21T13:09:43.745Z,4.10
2022-08-21T13:15:47.938Z,2.70
2022-08-21T13:18:56.050Z,2.80
2022-08-21T13:21:51.787Z,2.47
2022-08-21T13:28:07.836Z,2.60
2022-08-21T13:30:58.080Z,2.33
2022-08-21T13:33:57.077Z,2.60
2022-08-21T13:36:48.894Z,2.75
2022-08-21T13:39:40.823Z,2.72
2022-08-21T13:48:31.977Z,2.42
2022-08-21T13:51:32.825Z,2.30
2022-08-21T13:54:47.752Z,2.90
2022-08-21T13:57:41.298Z,2.35
2022-08-21T14:01:00.777Z,2.30
2022-08-21T14:04:07.390Z,2.28
2022-08-21T14:07:05.008Z,2.20
2022-08-21T14:09:56.721Z,2.53
2022-08-21T14:12:52.085Z,2.22
2022-08-21T14:15:56.999Z,2.40
2022-08-21T14:19:21.010Z,2.67
2022-08-21T14:22:24.102Z,2.70
2022-08-21T14:25:23.786Z,2.47
2022-08-21T14:28:40.916Z,2.42
2022-08-21T14:31:43.085Z,2.40
2022-08-21T14:34:39.793Z,2.30
2022-08-21T14:40:33.407Z,2.40
2022-08-21T14:43:35.058Z,2.70
2022-08-21T14:49:39.768Z,2.28
2022-08-21T14:52:34.743Z,2.83
2022-08-21T14:55:33.742Z,2.22
2022-08-21T14:58:37.713Z,2.47
2022-08-21T15:01:40.040Z,2.22
2022-08-21T15:04:35.745Z,2.37
2022-08-21T15:07:22.051Z,2.37
2022-08-21T15:10:31.251Z,2.62
2022-08-21T15:13:28.764Z,2.35
2022-08-21T15:16:18.217Z,2.30
2022-08-21T15:19:08.920Z,3.08
2022-08-21T15:21:58.930Z,2.70
2022-08-21T15:27:56.786Z,2.70
2022-08-21T15:30:59.916Z,2.45
2022-08-21T15:34:01.062Z,2.78
2022-08-21T15:40:06.829Z,2.60
2022-08-21T15:43:06.055Z,2.40
2022-08-21T15:45:54.696Z,2.50
2022-08-21T15:48:48.768Z,2.55
2022-08-21T15:54:38.238Z,2.85
2022-08-21T15:57:29.798Z,2.97
2022-08-21T16:00:24.268Z,2.97
2022-08-21T16:06:38.492Z,3.12
2022-08-21T16:09:38.936Z,3.72
2022-08-21T16:12:36.746Z,3.55
2022-08-21T16:15:38.795Z,3.70
2022-08-21T16:18:40.879Z,4.12
2022-08-21T16:21:36.786Z,4.32
2022-08-21T16:24:35.808Z,3.97
2022-08-21T16:27:28.086Z,3.53
2022-08-21T16:30:23.188Z,4.25
2022-08-21T16:33:45.230Z,3.53
2022-08-21T16:36:42.981Z,3.85
2022-08-21T16:39:34.870Z,4.18
2022-08-21T16:42:33.765Z,5.32
2022-08-21T16:45:36.190Z,4.97
2022-08-21T16:48:39.833Z,4.78
2022-08-21T16:51:39.007Z,4.93
2022-08-21T16:54:39.789Z,5.22
2022-08-21T16:57:30.737Z,6.25
2022-08-21T17:00:22.917Z,5.30
2022-08-21T17:06:16.331Z,5.15
2022-08-21T17:09:08.937Z,6.10
2022-08-21T17:12:02.771Z,4.45
2022-08-21T17:15:06.769Z,4.55
2022-08-21T17:18:07.749Z,4.32
2022-08-21T17:20:55.988Z,4.57
2022-08-21T17:23:49.957Z,5.00
2022-08-21T17:38:54.782Z,4.43
2022-08-21T17:41:58.215Z,4.87
2022-08-21T17:44:50.069Z,4.85
2022-08-21T17:47:50.974Z,4.78
2022-08-21T17:50:58.812Z,4.47
2022-08-21T18:00:03.450Z,4.72
2022-08-21T18:03:22.397Z,5.20
2022-08-21T18:06:27.803Z,4.75
2022-08-21T18:09:18.543Z,5.00
2022-08-21T18:12:21.405Z,5.32
2022-08-21T18:15:16.981Z,5.37
2022-08-21T18:18:28.843Z,5.50
2022-08-21T18:21:30.909Z,5.85
2022-08-21T18:24:32.160Z,6.25
2022-08-21T18:27:37.779Z,6.07
2022-08-21T18:30:44.840Z,5.82
2022-08-21T18:36:52.206Z,4.37
2022-08-21T18:39:50.902Z,3.80
2022-08-21T18:42:58.520Z,4.07
2022-08-21T18:48:51.675Z,3.58
2022-08-21T18:51:46.763Z,4.15
2022-08-21T18:54:54.132Z,4.60
2022-08-21T18:58:01.374Z,4.60
2022-08-21T19:01:08.645Z,4.55
2022-08-21T19:04:43.282Z,4.72
2022-08-21T19:07:47.810Z,5.00
2022-08-21T19:17:01.074Z,5.30
2022-08-21T19:19:50.104Z,4.47
2022-08-21T19:23:03.350Z,5.12
2022-08-21T19:29:08.129Z,5.28
2022-08-21T19:32:15.713Z,5.18
2022-08-21T19:35:19.012Z,4.83
2022-08-21T19:38:27.898Z,5.00
2022-08-21T19:41:17.913Z,4.60
2022-08-21T19:47:31.465Z,4.78
2022-08-21T19:50:45.675Z,3.97
2022-08-21T19:57:06.843Z,3.30
2022-08-21T20:02:56.065Z,2.90
2022-08-21T20:05:51.360Z,2.60
2022-08-21T20:08:57.855Z,3.08
2022-08-21T20:12:10.253Z,2.92
2022-08-21T20:21:17.675Z,3.08
2022-08-21T20:24:14.692Z,2.65
2022-08-21T20:30:18.426Z,2.50
2022-08-21T20:33:24.962Z,3.12
2022-08-21T20:36:14.822Z,3.17
2022-08-21T20:39:17.117Z,3.47
2022-08-21T20:42:07.034Z,3.22
2022-08-21T20:44:59.284Z,3.28
2022-08-21T20:47:52.638Z,3.40
2022-08-21T20:50:48.818Z,3.55
2022-08-21T20:57:01.977Z,3.83
2022-08-21T20:59:53.022Z,4.30
2022-08-21T21:06:00.292Z,4.10
2022-08-21T21:09:03.883Z,4.57
2022-08-21T21:11:54.156Z,4.53
2022-08-21T21:14:52.653Z,4.60
2022-08-21T21:17:49.545Z,4.78
2022-08-21T21:20:50.280Z,4.97
2022-08-21T21:24:14.988Z,4.70
2022-08-21T21:27:18.642Z,4.72
2022-08-21T21:30:14.447Z,4.95
2022-08-21T21:36:08.987Z,4.97
2022-08-21T21:39:21.550Z,5.18
2022-08-21T21:43:00.304Z,5.80
2022-08-21T21:45:50.631Z,6.35
2022-08-21T21:48:49.759Z,6.60
2022-08-21T21:52:01.755Z,6.60
2022-08-21T21:55:00.592Z,6.30
2022-08-21T21:58:04.512Z,5.65
2022-08-21T22:00:58.803Z,5.55
2022-08-21T22:03:54.422Z,6.30
2022-08-21T22:07:17.789Z,6.78
2022-08-21T22:10:30.027Z,6.43
2022-08-21T22:13:39.093Z,6.97
2022-08-21T22:16:27.113Z,7.25
2022-08-21T22:19:20.468Z,7.60
2022-08-21T22:22:10.483Z,7.22
2022-08-21T22:25:16.907Z,8.20
2022-08-21T22:28:09.953Z,7.25
2022-08-21T22:31:10.327Z,7.15
2022-08-21T22:34:05.322Z,7.43
2022-08-21T22:36:59.895Z,7.68
2022-08-21T22:39:54.296Z,7.55
2022-08-21T22:42:41.638Z,8.45
2022-08-21T22:45:32.555Z,8.35
2022-08-21T22:48:22.775Z,7.82
2022-08-21T22:51:32.656Z,8.13
2022-08-21T22:54:35.206Z,7.82
2022-08-21T22:57:24.271Z,7.62
2022-08-21T23:00:15.112Z,7.78
2022-08-21T23:03:06.935Z,7.43
2022-08-21T23:09:21.090Z,8.07
2022-08-21T23:15:45.814Z,8.10
2022-08-21T23:18:44.650Z,8.70
2022-08-21T23:22:04.590Z,9.52
2022-08-21T23:25:00.615Z,8.98
2022-08-21T23:28:11.293Z,9.18
2022-08-21T23:31:06.719Z,8.98
2022-08-21T23:37:49.059Z,8.77
2022-08-21T23:40:53.009Z,9.27
2022-08-21T23:44:00.063Z,8.60
2022-08-21T23:47:10.333Z,8.85
2022-08-21T23:50:14.028Z,8.90
2022-08-21T23:53:14.785Z,8.23
2022-08-21T23:56:07.677Z,8.45
2022-08-21T23:59:28.339Z,8.57
